sensor_id;sensor_type;location;lat;lon;timestamp;pressure;altitude;pressure_sealevel;temperature;humidity
75409;BME280;63979;55.644;37.734;2023-06-14T00:00:18;100578.66;;;14.82;53.39
75409;BME280;63979;55.644;37.734;2023-06-14T00:05:19;100581.69;;;14.77;54.30
75409;BME280;63979;55.644;37.734;2023-06-14T00:10:20;100582.22;;;14.58;55.71
75409;BME280;63979;55.644;37.734;2023-06-14T00:15:21;100582.28;;;14.57;55.48
75409;BME280;63979;55.644;37.734;2023-06-14T00:20:22;100580.50;;;14.57;56.70
75409;BME280;63979;55.644;37.734;2023-06-14T00:25:23;100536.03;;;14.28;56.55
75409;BME280;63979;55.644;37.734;2023-06-14T00:30:26;100567.50;;;14.39;58.03
75409;BME280;63979;55.644;37.734;2023-06-14T00:35:31;100581.56;;;14.42;58.91
75409;BME280;63979;55.644;37.734;2023-06-14T00:40:32;100575.13;;;14.32;61.28
75409;BME280;63979;55.644;37.734;2023-06-14T00:45:33;100580.72;;;14.29;62.06
75409;BME280;63979;55.644;37.734;2023-06-14T00:50:36;100583.31;;;14.30;62.61
75409;BME280;63979;55.644;37.734;2023-06-14T00:55:38;100578.38;;;14.24;63.40
75409;BME280;63979;55.644;37.734;2023-06-14T01:00:39;100575.69;;;14.24;64.64
75409;BME280;63979;55.644;37.734;2023-06-14T01:05:40;100579.97;;;14.27;65.18
75409;BME280;63979;55.644;37.734;2023-06-14T01:15:48;100575.81;;;14.23;67.07
75409;BME280;63979;55.644;37.734;2023-06-14T01:20:51;100572.03;;;14.25;68.17
75409;BME280;63979;55.644;37.734;2023-06-14T01:25:55;100581.59;;;14.29;67.66
75409;BME280;63979;55.644;37.734;2023-06-14T01:30:57;100571.72;;;14.30;66.92
75409;BME280;63979;55.644;37.734;2023-06-14T01:36:01;100590.16;;;14.34;68.12
75409;BME280;63979;55.644;37.734;2023-06-14T01:41:03;100584.34;;;14.41;67.62
75409;BME280;63979;55.644;37.734;2023-06-14T01:46:06;100587.25;;;14.50;67.92
75409;BME280;63979;55.644;37.734;2023-06-14T01:51:07;100586.91;;;14.55;68.04
75409;BME280;63979;55.644;37.734;2023-06-14T01:56:08;100591.75;;;14.62;67.18
75409;BME280;63979;55.644;37.734;2023-06-14T02:01:09;100584.66;;;14.61;65.84
75409;BME280;63979;55.644;37.734;2023-06-14T02:06:12;100590.09;;;14.73;65.30
75409;BME280;63979;55.644;37.734;2023-06-14T02:11:13;100586.84;;;14.80;64.16
75409;BME280;63979;55.644;37.734;2023-06-14T02:16:14;100593.72;;;14.84;63.37
75409;BME280;63979;55.644;37.734;2023-06-14T02:21:18;100584.22;;;14.91;63.84
75409;BME280;63979;55.644;37.734;2023-06-14T02:26:19;100586.75;;;15.06;64.93
75409;BME280;63979;55.644;37.734;2023-06-14T02:31:20;100591.38;;;15.04;64.23
75409;BME280;63979;55.644;37.734;2023-06-14T02:36:21;100593.38;;;15.13;63.23
75409;BME280;63979;55.644;37.734;2023-06-14T02:41:25;100580.31;;;15.19;62.18
75409;BME280;63979;55.644;37.734;2023-06-14T02:46:26;100592.38;;;15.38;62.23
75409;BME280;63979;55.644;37.734;2023-06-14T02:51:27;100601.97;;;15.53;61.97
75409;BME280;63979;55.644;37.734;2023-06-14T02:56:29;100606.22;;;15.68;58.90
75409;BME280;63979;55.644;37.734;2023-06-14T03:01:30;100570.19;;;15.58;56.35
75409;BME280;63979;55.644;37.734;2023-06-14T03:06:35;100595.97;;;15.96;55.59
75409;BME280;63979;55.644;37.734;2023-06-14T03:11:37;100592.09;;;16.11;56.35
75409;BME280;63979;55.644;37.734;2023-06-14T03:16:37;100599.19;;;16.23;55.76
75409;BME280;63979;55.644;37.734;2023-06-14T03:21:39;100568.94;;;16.19;55.46
75409;BME280;63979;55.644;37.734;2023-06-14T03:26:45;100597.44;;;16.56;54.87
75409;BME280;63979;55.644;37.734;2023-06-14T03:32:00;100595.75;;;16.77;54.20
75409;BME280;63979;55.644;37.734;2023-06-14T03:37:01;100591.25;;;16.98;53.23
75409;BME280;63979;55.644;37.734;2023-06-14T03:42:03;100594.03;;;17.19;52.18
75409;BME280;63979;55.644;37.734;2023-06-14T03:47:04;100595.78;;;17.41;49.07
75409;BME280;63979;55.644;37.734;2023-06-14T03:52:05;100599.88;;;17.56;47.99
75409;BME280;63979;55.644;37.734;2023-06-14T03:57:07;100593.53;;;17.78;47.33
75409;BME280;63979;55.644;37.734;2023-06-14T04:02:08;100596.91;;;18.01;46.76
75409;BME280;63979;55.644;37.734;2023-06-14T04:07:11;100588.66;;;18.23;44.94
75409;BME280;63979;55.644;37.734;2023-06-14T04:12:12;100592.75;;;18.58;43.84
75409;BME280;63979;55.644;37.734;2023-06-14T04:17:13;100589.91;;;18.99;42.87
75409;BME280;63979;55.644;37.734;2023-06-14T04:22:14;100593.06;;;19.33;42.33
75409;BME280;63979;55.644;37.734;2023-06-14T04:27:16;100590.75;;;19.77;41.25
75409;BME280;63979;55.644;37.734;2023-06-14T04:32:26;100596.69;;;20.10;39.88
75409;BME280;63979;55.644;37.734;2023-06-14T04:37:27;100596.19;;;20.34;39.86
75409;BME280;63979;55.644;37.734;2023-06-14T04:42:29;100578.31;;;20.50;38.44
75409;BME280;63979;55.644;37.734;2023-06-14T04:47:31;100588.78;;;20.91;38.32
75409;BME280;63979;55.644;37.734;2023-06-14T04:52:32;100595.28;;;21.25;36.53
75409;BME280;63979;55.644;37.734;2023-06-14T04:57:33;100587.50;;;21.48;36.96
75409;BME280;63979;55.644;37.734;2023-06-14T05:02:36;100587.69;;;21.29;36.61
75409;BME280;63979;55.644;37.734;2023-06-14T05:07:38;100575.09;;;21.45;36.55
75409;BME280;63979;55.644;37.734;2023-06-14T05:12:39;100581.47;;;21.80;35.42
75409;BME280;63979;55.644;37.734;2023-06-14T05:17:40;100588.22;;;22.20;35.46
75409;BME280;63979;55.644;37.734;2023-06-14T05:22:42;100580.97;;;22.28;35.07
75409;BME280;63979;55.644;37.734;2023-06-14T05:27:43;100576.63;;;22.86;32.93
75409;BME280;63979;55.644;37.734;2023-06-14T05:32:44;100571.59;;;23.23;32.02
75409;BME280;63979;55.644;37.734;2023-06-14T05:37:46;100589.50;;;24.63;30.28
75409;BME280;63979;55.644;37.734;2023-06-14T05:42:48;100580.16;;;26.55;26.79
75409;BME280;63979;55.644;37.734;2023-06-14T05:47:48;100585.03;;;27.89;22.87
75409;BME280;63979;55.644;37.734;2023-06-14T05:52:51;100594.59;;;29.03;22.69
75409;BME280;63979;55.644;37.734;2023-06-14T05:57:52;100585.25;;;30.25;21.07
75409;BME280;63979;55.644;37.734;2023-06-14T06:02:53;100595.47;;;30.82;20.01
75409;BME280;63979;55.644;37.734;2023-06-14T06:07:54;100596.06;;;31.67;19.26
75409;BME280;63979;55.644;37.734;2023-06-14T06:12:55;100606.88;;;31.75;19.23
75409;BME280;63979;55.644;37.734;2023-06-14T06:17:56;100568.50;;;32.72;17.47
75409;BME280;63979;55.644;37.734;2023-06-14T06:22:58;100605.28;;;33.80;16.20
75409;BME280;63979;55.644;37.734;2023-06-14T06:27:59;100602.69;;;34.32;15.22
75409;BME280;63979;55.644;37.734;2023-06-14T06:33:01;100598.09;;;34.73;15.27
75409;BME280;63979;55.644;37.734;2023-06-14T06:38:02;100598.22;;;35.47;14.59
75409;BME280;63979;55.644;37.734;2023-06-14T06:43:03;100614.75;;;35.70;14.46
75409;BME280;63979;55.644;37.734;2023-06-14T06:48:04;100583.28;;;35.08;14.36
75409;BME280;63979;55.644;37.734;2023-06-14T06:53:05;100574.16;;;34.95;14.51
75409;BME280;63979;55.644;37.734;2023-06-14T06:58:07;100585.09;;;35.42;14.05
75409;BME280;63979;55.644;37.734;2023-06-14T07:03:08;100593.69;;;35.57;13.81
75409;BME280;63979;55.644;37.734;2023-06-14T07:08:09;100595.72;;;35.79;13.84
75409;BME280;63979;55.644;37.734;2023-06-14T07:13:10;100589.72;;;36.37;12.87
75409;BME280;63979;55.644;37.734;2023-06-14T07:18:12;100593.47;;;36.09;13.26
75409;BME280;63979;55.644;37.734;2023-06-14T07:23:13;100590.88;;;37.51;12.46
75409;BME280;63979;55.644;37.734;2023-06-14T07:28:16;100596.31;;;37.94;11.45
75409;BME280;63979;55.644;37.734;2023-06-14T07:33:18;100557.97;;;39.52;10.77
75409;BME280;63979;55.644;37.734;2023-06-14T07:38:20;100571.38;;;39.85;10.45
75409;BME280;63979;55.644;37.734;2023-06-14T07:43:21;100596.84;;;39.53;11.24
75409;BME280;63979;55.644;37.734;2023-06-14T07:48:22;100601.69;;;38.48;11.48
75409;BME280;63979;55.644;37.734;2023-06-14T07:53:24;100582.53;;;39.24;11.67
75409;BME280;63979;55.644;37.734;2023-06-14T07:58:26;100591.88;;;38.35;11.35
75409;BME280;63979;55.644;37.734;2023-06-14T08:03:27;100587.81;;;38.58;11.73
75409;BME280;63979;55.644;37.734;2023-06-14T08:08:29;100578.59;;;41.22;10.30
75409;BME280;63979;55.644;37.734;2023-06-14T08:13:31;100583.63;;;42.27;9.58
75409;BME280;63979;55.644;37.734;2023-06-14T08:18:32;100588.16;;;42.23;9.16
75409;BME280;63979;55.644;37.734;2023-06-14T08:23:33;100577.44;;;42.54;8.91
75409;BME280;63979;55.644;37.734;2023-06-14T08:28:34;100582.41;;;40.87;10.00
75409;BME280;63979;55.644;37.734;2023-06-14T08:33:35;100582.09;;;41.43;9.38
75409;BME280;63979;55.644;37.734;2023-06-14T08:38:37;100586.25;;;41.51;9.74
75409;BME280;63979;55.644;37.734;2023-06-14T08:43:38;100589.47;;;41.73;9.38
75409;BME280;63979;55.644;37.734;2023-06-14T08:48:40;100582.31;;;41.07;9.29
75409;BME280;63979;55.644;37.734;2023-06-14T08:53:41;100567.88;;;41.73;9.29
75409;BME280;63979;55.644;37.734;2023-06-14T08:58:44;100566.38;;;41.81;8.65
75409;BME280;63979;55.644;37.734;2023-06-14T09:03:45;100563.19;;;42.51;8.47
75409;BME280;63979;55.644;37.734;2023-06-14T09:08:49;100558.13;;;43.14;8.45
75409;BME280;63979;55.644;37.734;2023-06-14T09:13:50;100554.50;;;43.84;8.21
75409;BME280;63979;55.644;37.734;2023-06-14T09:18:51;100550.75;;;43.18;8.09
75409;BME280;63979;55.644;37.734;2023-06-14T09:23:52;100545.53;;;43.31;8.10
75409;BME280;63979;55.644;37.734;2023-06-14T09:28:54;100544.25;;;42.80;8.29
75409;BME280;63979;55.644;37.734;2023-06-14T09:33:56;100531.00;;;43.05;6.98
75409;BME280;63979;55.644;37.734;2023-06-14T09:38:59;100553.72;;;42.42;8.31
75409;BME280;63979;55.644;37.734;2023-06-14T09:44:03;100531.28;;;41.84;7.99
75409;BME280;63979;55.644;37.734;2023-06-14T09:49:07;100537.16;;;42.16;8.63
75409;BME280;63979;55.644;37.734;2023-06-14T09:54:16;100539.06;;;41.92;7.84
75409;BME280;63979;55.644;37.734;2023-06-14T09:59:22;100524.81;;;42.84;8.42
75409;BME280;63979;55.644;37.734;2023-06-14T10:04:31;100518.47;;;43.35;8.34
75409;BME280;63979;55.644;37.734;2023-06-14T10:09:34;100510.00;;;44.96;7.44
75409;BME280;63979;55.644;37.734;2023-06-14T10:14:36;100499.56;;;44.00;7.61
75409;BME280;63979;55.644;37.734;2023-06-14T10:20:03;100501.44;;;43.45;7.86
75409;BME280;63979;55.644;37.734;2023-06-14T10:25:07;100494.28;;;44.40;7.56
75409;BME280;63979;55.644;37.734;2023-06-14T10:30:14;100483.94;;;44.76;7.63
75409;BME280;63979;55.644;37.734;2023-06-14T10:35:16;100491.19;;;44.55;7.30
75409;BME280;63979;55.644;37.734;2023-06-14T10:40:30;100488.00;;;43.42;7.98
75409;BME280;63979;55.644;37.734;2023-06-14T10:45:31;100473.78;;;42.77;9.03
75409;BME280;63979;55.644;37.734;2023-06-14T10:50:32;100487.00;;;42.33;8.62
75409;BME280;63979;55.644;37.734;2023-06-14T10:55:35;100478.47;;;41.28;9.08
75409;BME280;63979;55.644;37.734;2023-06-14T11:00:37;100460.13;;;39.42;10.47
75409;BME280;63979;55.644;37.734;2023-06-14T11:05:56;100461.69;;;38.66;10.92
75409;BME280;63979;55.644;37.734;2023-06-14T11:11:02;100463.72;;;37.39;12.07
75409;BME280;63979;55.644;37.734;2023-06-14T11:16:17;100447.38;;;35.46;13.64
75409;BME280;63979;55.644;37.734;2023-06-14T11:21:19;100431.06;;;34.59;14.56
75409;BME280;63979;55.644;37.734;2023-06-14T11:26:31;100427.53;;;33.48;15.05
75409;BME280;63979;55.644;37.734;2023-06-14T11:31:35;100434.19;;;33.17;15.64
75409;BME280;63979;55.644;37.734;2023-06-14T11:36:36;100388.34;;;33.22;15.99
75409;BME280;63979;55.644;37.734;2023-06-14T11:41:44;100427.44;;;33.02;15.37
75409;BME280;63979;55.644;37.734;2023-06-14T11:46:45;100386.53;;;32.62;15.75
75409;BME280;63979;55.644;37.734;2023-06-14T11:51:53;100403.59;;;32.29;16.03
75409;BME280;63979;55.644;37.734;2023-06-14T11:56:53;100401.09;;;32.21;16.06
75409;BME280;63979;55.644;37.734;2023-06-14T12:01:55;100390.75;;;32.16;16.81
75409;BME280;63979;55.644;37.734;2023-06-14T12:06:56;100385.97;;;31.50;16.79
75409;BME280;63979;55.644;37.734;2023-06-14T12:12:00;100380.28;;;31.27;17.12
75409;BME280;63979;55.644;37.734;2023-06-14T12:17:06;100376.09;;;30.86;18.00
75409;BME280;63979;55.644;37.734;2023-06-14T12:22:09;100379.94;;;30.85;18.52
75409;BME280;63979;55.644;37.734;2023-06-14T12:27:10;100367.44;;;30.83;18.65
75409;BME280;63979;55.644;37.734;2023-06-14T12:32:19;100363.75;;;30.95;18.29
75409;BME280;63979;55.644;37.734;2023-06-14T12:37:20;100357.91;;;31.35;17.92
75409;BME280;63979;55.644;37.734;2023-06-14T12:42:21;100355.72;;;30.94;17.71
75409;BME280;63979;55.644;37.734;2023-06-14T12:47:22;100365.19;;;29.90;18.70
75409;BME280;63979;55.644;37.734;2023-06-14T12:52:23;100361.06;;;29.55;19.04
75409;BME280;63979;55.644;37.734;2023-06-14T12:57:24;100327.31;;;29.86;18.32
75409;BME280;63979;55.644;37.734;2023-06-14T13:02:25;100351.47;;;29.70;18.93
75409;BME280;63979;55.644;37.734;2023-06-14T13:07:27;100352.72;;;29.88;19.15
75409;BME280;63979;55.644;37.734;2023-06-14T13:12:28;100350.13;;;29.93;18.25
75409;BME280;63979;55.644;37.734;2023-06-14T13:17:29;100342.53;;;29.81;18.79
75409;BME280;63979;55.644;37.734;2023-06-14T13:22:30;100337.03;;;29.81;18.62
75409;BME280;63979;55.644;37.734;2023-06-14T13:27:31;100317.28;;;30.04;18.67
75409;BME280;63979;55.644;37.734;2023-06-14T13:32:32;100333.94;;;30.16;18.25
75409;BME280;63979;55.644;37.734;2023-06-14T13:37:33;100332.56;;;29.94;19.32
75409;BME280;63979;55.644;37.734;2023-06-14T13:42:34;100326.47;;;29.85;18.98
75409;BME280;63979;55.644;37.734;2023-06-14T13:47:37;100327.81;;;29.63;19.48
75409;BME280;63979;55.644;37.734;2023-06-14T13:52:38;100322.19;;;29.18;19.31
75409;BME280;63979;55.644;37.734;2023-06-14T13:57:38;100283.91;;;28.97;20.41
75409;BME280;63979;55.644;37.734;2023-06-14T14:02:40;100323.06;;;28.85;20.28
75409;BME280;63979;55.644;37.734;2023-06-14T14:07:41;100325.16;;;28.90;20.29
75409;BME280;63979;55.644;37.734;2023-06-14T14:12:42;100319.19;;;28.73;20.42
75409;BME280;63979;55.644;37.734;2023-06-14T14:17:43;100290.81;;;28.20;20.61
75409;BME280;63979;55.644;37.734;2023-06-14T14:22:44;100316.63;;;28.39;20.55
75409;BME280;63979;55.644;37.734;2023-06-14T14:27:45;100310.72;;;28.29;20.83
75409;BME280;63979;55.644;37.734;2023-06-14T14:32:46;100316.94;;;28.03;21.18
75409;BME280;63979;55.644;37.734;2023-06-14T14:37:48;100317.31;;;27.86;21.24
75409;BME280;63979;55.644;37.734;2023-06-14T14:42:50;100307.81;;;27.89;21.10
75409;BME280;63979;55.644;37.734;2023-06-14T14:47:51;100308.50;;;27.56;21.17
75409;BME280;63979;55.644;37.734;2023-06-14T14:52:52;100321.78;;;27.94;21.31
75409;BME280;63979;55.644;37.734;2023-06-14T14:57:54;100292.13;;;27.70;21.37
75409;BME280;63979;55.644;37.734;2023-06-14T15:02:55;100317.38;;;27.58;21.67
75409;BME280;63979;55.644;37.734;2023-06-14T15:07:56;100313.66;;;27.73;21.74
75409;BME280;63979;55.644;37.734;2023-06-14T15:12:57;100313.91;;;27.78;21.73
75409;BME280;63979;55.644;37.734;2023-06-14T15:17:59;100312.34;;;27.62;22.38
75409;BME280;63979;55.644;37.734;2023-06-14T15:23:01;100324.06;;;27.43;22.02
75409;BME280;63979;55.644;37.734;2023-06-14T15:28:01;100331.50;;;27.21;22.22
75409;BME280;63979;55.644;37.734;2023-06-14T15:33:06;100326.81;;;26.93;21.89
75409;BME280;63979;55.644;37.734;2023-06-14T15:38:07;100324.16;;;26.72;22.01
75409;BME280;63979;55.644;37.734;2023-06-14T15:43:08;100321.66;;;26.77;22.36
75409;BME280;63979;55.644;37.734;2023-06-14T15:48:09;100294.75;;;26.38;22.71
75409;BME280;63979;55.644;37.734;2023-06-14T15:53:10;100329.72;;;26.21;22.82
75409;BME280;63979;55.644;37.734;2023-06-14T15:58:12;100325.44;;;25.97;23.57
75409;BME280;63979;55.644;37.734;2023-06-14T16:03:13;100333.63;;;26.12;23.55
75409;BME280;63979;55.644;37.734;2023-06-14T16:08:14;100338.63;;;26.08;23.32
75409;BME280;63979;55.644;37.734;2023-06-14T16:13:15;100324.59;;;25.97;23.38
75409;BME280;63979;55.644;37.734;2023-06-14T16:18:16;100333.38;;;25.63;23.96
75409;BME280;63979;55.644;37.734;2023-06-14T16:23:17;100329.16;;;25.31;24.14
75409;BME280;63979;55.644;37.734;2023-06-14T16:28:18;100336.41;;;25.09;24.48
75409;BME280;63979;55.644;37.734;2023-06-14T16:33:19;100344.03;;;25.13;24.48
75409;BME280;63979;55.644;37.734;2023-06-14T16:38:21;100342.16;;;24.99;24.83
75409;BME280;63979;55.644;37.734;2023-06-14T16:43:22;100302.13;;;24.69;25.25
75409;BME280;63979;55.644;37.734;2023-06-14T16:48:23;100322.56;;;24.73;24.78
75409;BME280;63979;55.644;37.734;2023-06-14T16:53:24;100354.94;;;24.76;24.61
75409;BME280;63979;55.644;37.734;2023-06-14T16:58:25;100356.09;;;24.58;24.78
75409;BME280;63979;55.644;37.734;2023-06-14T17:03:26;100368.97;;;24.50;24.77
75409;BME280;63979;55.644;37.734;2023-06-14T17:08:28;100362.72;;;24.41;24.50
75409;BME280;63979;55.644;37.734;2023-06-14T17:13:29;100328.78;;;24.13;24.93
75409;BME280;63979;55.644;37.734;2023-06-14T17:18:30;100345.81;;;24.15;25.08
75409;BME280;63979;55.644;37.734;2023-06-14T17:23:31;100358.47;;;24.08;25.13
75409;BME280;63979;55.644;37.734;2023-06-14T17:28:35;100364.66;;;24.02;25.42
75409;BME280;63979;55.644;37.734;2023-06-14T17:33:39;100374.59;;;23.94;25.43
75409;BME280;63979;55.644;37.734;2023-06-14T17:38:41;100339.78;;;23.57;25.52
75409;BME280;63979;55.644;37.734;2023-06-14T17:43:41;100376.38;;;23.55;25.91
75409;BME280;63979;55.644;37.734;2023-06-14T17:48:42;100369.94;;;23.56;26.40
75409;BME280;63979;55.644;37.734;2023-06-14T17:53:43;100379.50;;;23.44;26.34
75409;BME280;63979;55.644;37.734;2023-06-14T17:58:45;100380.22;;;23.29;26.53
75409;BME280;63979;55.644;37.734;2023-06-14T18:03:46;100383.63;;;23.15;26.76
75409;BME280;63979;55.644;37.734;2023-06-14T18:08:47;100393.69;;;23.07;26.68
75409;BME280;63979;55.644;37.734;2023-06-14T18:13:49;100393.56;;;22.92;27.97
75409;BME280;63979;55.644;37.734;2023-06-14T18:18:50;100397.59;;;22.71;28.35
75409;BME280;63979;55.644;37.734;2023-06-14T18:23:51;100393.50;;;22.59;27.77
75409;BME280;63979;55.644;37.734;2023-06-14T18:28:54;100396.53;;;22.48;29.05
75409;BME280;63979;55.644;37.734;2023-06-14T18:33:56;100408.94;;;22.42;28.67
75409;BME280;63979;55.644;37.734;2023-06-14T18:38:57;100397.19;;;22.26;29.27
75409;BME280;63979;55.644;37.734;2023-06-14T18:43:58;100398.81;;;22.10;29.64
75409;BME280;63979;55.644;37.734;2023-06-14T18:48:59;100405.63;;;22.15;29.74
75409;BME280;63979;55.644;37.734;2023-06-14T18:54:01;100399.59;;;21.95;30.22
75409;BME280;63979;55.644;37.734;2023-06-14T18:59:03;100398.41;;;21.97;30.29
75409;BME280;63979;55.644;37.734;2023-06-14T19:04:04;100401.44;;;21.86;30.57
75409;BME280;63979;55.644;37.734;2023-06-14T19:09:05;100397.28;;;21.74;30.78
75409;BME280;63979;55.644;37.734;2023-06-14T19:14:06;100395.72;;;21.63;30.75
75409;BME280;63979;55.644;37.734;2023-06-14T19:19:07;100399.94;;;21.58;31.64
75409;BME280;63979;55.644;37.734;2023-06-14T19:24:08;100402.56;;;21.41;31.92
75409;BME280;63979;55.644;37.734;2023-06-14T19:29:09;100406.94;;;21.34;31.54
75409;BME280;63979;55.644;37.734;2023-06-14T19:34:10;100395.16;;;21.26;31.83
75409;BME280;63979;55.644;37.734;2023-06-14T19:39:11;100402.63;;;21.24;32.06
75409;BME280;63979;55.644;37.734;2023-06-14T19:44:12;100399.34;;;21.20;31.55
75409;BME280;63979;55.644;37.734;2023-06-14T19:49:13;100405.22;;;21.15;31.67
75409;BME280;63979;55.644;37.734;2023-06-14T19:54:14;100411.13;;;21.11;31.73
75409;BME280;63979;55.644;37.734;2023-06-14T19:59:15;100415.28;;;20.97;31.94
75409;BME280;63979;55.644;37.734;2023-06-14T20:04:16;100419.97;;;20.87;32.12
75409;BME280;63979;55.644;37.734;2023-06-14T20:09:17;100420.56;;;20.81;33.39
75409;BME280;63979;55.644;37.734;2023-06-14T20:14:19;100421.59;;;20.62;33.34
75409;BME280;63979;55.644;37.734;2023-06-14T20:19:21;100427.09;;;20.52;33.09
75409;BME280;63979;55.644;37.734;2023-06-14T20:24:22;100428.56;;;20.47;33.32
75409;BME280;63979;55.644;37.734;2023-06-14T20:29:23;100427.88;;;20.35;33.60
75409;BME280;63979;55.644;37.734;2023-06-14T20:34:24;100433.47;;;20.34;33.63
75409;BME280;63979;55.644;37.734;2023-06-14T20:39:25;100438.50;;;20.29;33.49
75409;BME280;63979;55.644;37.734;2023-06-14T20:44:26;100434.69;;;20.21;34.00
75409;BME280;63979;55.644;37.734;2023-06-14T20:49:29;100429.88;;;20.15;34.50
75409;BME280;63979;55.644;37.734;2023-06-14T20:54:32;100432.78;;;20.04;34.39
75409;BME280;63979;55.644;37.734;2023-06-14T20:59:34;100434.00;;;19.92;34.93
75409;BME280;63979;55.644;37.734;2023-06-14T21:04:35;100434.34;;;19.79;35.84
75409;BME280;63979;55.644;37.734;2023-06-14T21:09:38;100419.41;;;19.66;35.98
75409;BME280;63979;55.644;37.734;2023-06-14T21:14:43;100420.88;;;19.50;36.93
75409;BME280;63979;55.644;37.734;2023-06-14T21:19:44;100434.03;;;19.36;37.65
75409;BME280;63979;55.644;37.734;2023-06-14T21:24:45;100416.84;;;19.08;39.19
75409;BME280;63979;55.644;37.734;2023-06-14T21:29:45;100430.94;;;19.01;43.80
75409;BME280;63979;55.644;37.734;2023-06-14T21:34:47;100427.44;;;18.82;44.24
75409;BME280;63979;55.644;37.734;2023-06-14T21:39:48;100425.44;;;18.74;45.70
75409;BME280;63979;55.644;37.734;2023-06-14T21:44:49;100418.56;;;18.60;46.49
75409;BME280;63979;55.644;37.734;2023-06-14T21:49:52;100412.59;;;18.47;47.78
75409;BME280;63979;55.644;37.734;2023-06-14T21:54:54;100409.41;;;18.32;48.38
75409;BME280;63979;55.644;37.734;2023-06-14T21:59:58;100410.84;;;18.17;52.44
75409;BME280;63979;55.644;37.734;2023-06-14T22:04:59;100410.53;;;18.11;52.78
75409;BME280;63979;55.644;37.734;2023-06-14T22:10:00;100404.50;;;17.97;52.59
75409;BME280;63979;55.644;37.734;2023-06-14T22:15:02;100384.41;;;17.71;52.06
75409;BME280;63979;55.644;37.734;2023-06-14T22:20:06;100377.75;;;17.54;52.42
75409;BME280;63979;55.644;37.734;2023-06-14T22:25:11;100411.31;;;17.61;52.61
75409;BME280;63979;55.644;37.734;2023-06-14T22:30:14;100426.63;;;17.51;52.97
75409;BME280;63979;55.644;37.734;2023-06-14T22:35:16;100414.72;;;17.33;52.79
75409;BME280;63979;55.644;37.734;2023-06-14T22:40:19;100404.16;;;17.20;52.31
75409;BME280;63979;55.644;37.734;2023-06-14T22:45:21;100410.91;;;17.05;52.49
75409;BME280;63979;55.644;37.734;2023-06-14T22:50:25;100409.22;;;16.93;53.04
75409;BME280;63979;55.644;37.734;2023-06-14T22:55:26;100403.06;;;16.81;54.30
75409;BME280;63979;55.644;37.734;2023-06-14T23:00:27;100416.47;;;16.71;53.58
75409;BME280;63979;55.644;37.734;2023-06-14T23:05:28;100414.63;;;16.61;52.48
75409;BME280;63979;55.644;37.734;2023-06-14T23:10:30;100424.69;;;16.59;54.00
75409;BME280;63979;55.644;37.734;2023-06-14T23:15:31;100421.53;;;16.53;54.60
75409;BME280;63979;55.644;37.734;2023-06-14T23:20:34;100417.28;;;16.40;54.21
75409;BME280;63979;55.644;37.734;2023-06-14T23:25:37;100417.69;;;16.35;54.14
75409;BME280;63979;55.644;37.734;2023-06-14T23:30:41;100418.56;;;16.25;54.92
75409;BME280;63979;55.644;37.734;2023-06-14T23:35:45;100413.81;;;16.17;54.49
75409;BME280;63979;55.644;37.734;2023-06-14T23:40:47;100418.72;;;16.12;54.26
75409;BME280;63979;55.644;37.734;2023-06-14T23:45:50;100413.38;;;16.01;54.49
75409;BME280;63979;55.644;37.734;2023-06-14T23:50:56;100388.28;;;15.89;54.00
75409;BME280;63979;55.644;37.734;2023-06-14T23:55:57;100408.22;;;15.98;54.15
